Time;durP1;ratioP1;P1;durP2;ratioP2;P2;SDS_P1;SDS_P2;PMS_P1;PMS_P2;Temp;Humidity;BMP_temperature;BMP_pressure;BME280_temperature;BME280_humidity;BME280_pressure;Samples;Min_cycle;Max_cycle;Signal;HPM_P1;HPM_P2
2021/12/15 00:00:17;;;;;;;26.50;18.65;;;6.50;99.90;;;;;;1947478;72;21119;-74
2021/12/15 00:02:44;;;;;;;28.80;18.30;;;6.40;99.90;;;;;;1932313;73;21149;-76
2021/12/15 00:05:11;;;;;;;25.68;18.37;;;6.50;99.90;;;;;;1946021;72;21074;-75
2021/12/15 00:07:37;;;;;;;28.25;18.40;;;6.40;99.90;;;;;;1941482;73;21075;-75
2021/12/15 00:10:03;;;;;;;24.23;17.37;;;6.40;99.90;;;;;;1922301;73;21079;-75
2021/12/15 00:12:31;;;;;;;23.62;16.75;;;6.50;99.90;;;;;;1932900;73;21480;-75
2021/12/15 00:14:57;;;;;;;28.73;18.77;;;6.50;99.90;;;;;;1946329;72;21085;-74
2021/12/15 00:17:26;;;;;;;22.35;16.42;;;6.50;99.90;;;;;;1941584;72;21213;-75
2021/12/15 00:19:52;;;;;;;32.45;17.07;;;6.50;99.90;;;;;;1935893;72;21436;-76
2021/12/15 00:22:21;;;;;;;36.83;19.82;;;6.50;99.90;;;;;;1948613;73;21621;-76
2021/12/15 00:24:47;;;;;;;28.07;17.98;;;6.50;99.90;;;;;;1922459;72;21040;-75
2021/12/15 00:27:13;;;;;;;32.42;20.08;;;6.60;99.90;;;;;;1939434;72;21078;-75
2021/12/15 00:29:41;;;;;;;29.00;18.75;;;6.60;99.90;;;;;;1943831;72;21066;-76
2021/12/15 00:32:07;;;;;;;28.92;18.90;;;6.70;99.90;;;;;;1941362;72;21074;-76
2021/12/15 00:34:33;;;;;;;31.35;18.15;;;6.70;99.90;;;;;;1946437;73;21032;-76
2021/12/15 00:36:59;;;;;;;27.73;17.50;;;6.70;99.90;;;;;;1946111;73;21144;-75
2021/12/15 00:39:27;;;;;;;31.97;19.55;;;6.60;99.90;;;;;;1935793;72;21149;-75
2021/12/15 00:41:53;;;;;;;26.52;17.77;;;6.60;99.90;;;;;;1944218;72;21101;-74
2021/12/15 00:44:19;;;;;;;29.57;18.73;;;6.50;99.90;;;;;;1941194;72;21135;-75
2021/12/15 00:46:45;;;;;;;28.38;19.15;;;6.40;99.90;;;;;;1949909;72;21101;-76
2021/12/15 00:49:11;;;;;;;28.38;18.50;;;6.40;99.90;;;;;;1938407;73;21144;-76
2021/12/15 00:51:37;;;;;;;34.90;19.23;;;6.40;99.90;;;;;;1950144;73;21074;-75
2021/12/15 00:54:03;;;;;;;31.20;19.92;;;6.60;99.90;;;;;;1943435;73;21109;-75
2021/12/15 00:56:30;;;;;;;27.07;18.45;;;6.60;99.90;;;;;;1935644;72;21080;-76
2021/12/15 00:58:56;;;;;;;26.48;18.30;;;6.60;99.90;;;;;;1928215;72;21592;-77
2021/12/15 01:01:23;;;;;;;31.80;19.40;;;6.60;99.90;;;;;;1945893;72;21056;-77
2021/12/15 01:03:50;;;;;;;28.50;19.15;;;6.70;99.90;;;;;;1937171;72;21092;-76
2021/12/15 01:06:18;;;;;;;33.75;19.87;;;6.60;99.90;;;;;;1928397;73;21167;-77
2021/12/15 01:08:45;;;;;;;28.47;18.75;;;6.60;99.90;;;;;;1930887;73;21158;-76
2021/12/15 01:11:25;;;;;;;32.35;19.87;;;6.60;99.90;;;;;;1936541;72;21087;-77
2021/12/15 01:21:58;;;;;;;27.52;18.27;;;6.60;99.90;;;;;;1933498;72;21142;-75
2021/12/15 01:24:24;;;;;;;23.57;17.10;;;6.60;99.90;;;;;;1947910;72;21121;-77
2021/12/15 01:26:50;;;;;;;28.07;17.52;;;6.70;99.90;;;;;;1946230;72;21145;-76
2021/12/15 01:29:16;;;;;;;29.30;17.30;;;6.60;99.90;;;;;;1934642;72;21071;-77
2021/12/15 01:31:42;;;;;;;31.25;17.65;;;6.60;99.90;;;;;;1939811;73;21161;-77
2021/12/15 01:34:08;;;;;;;29.42;18.02;;;6.60;99.90;;;;;;1945968;72;21078;-77
2021/12/15 01:36:35;;;;;;;27.22;18.57;;;6.50;99.90;;;;;;1947929;72;21227;-77
2021/12/15 01:39:01;;;;;;;27.75;18.67;;;6.60;99.90;;;;;;1936494;72;21091;-76
2021/12/15 01:41:27;;;;;;;28.65;17.02;;;6.60;99.90;;;;;;1936333;73;21442;-76
2021/12/15 01:49:17;;;;;;;32.20;19.80;;;6.60;99.90;;;;;;1942861;72;21092;-76
2021/12/15 01:51:43;;;;;;;34.23;19.85;;;6.70;99.90;;;;;;1934723;73;21287;-75
2021/12/15 01:54:09;;;;;;;31.93;20.30;;;6.60;99.90;;;;;;1927905;73;21093;-75
2021/12/15 01:56:35;;;;;;;26.15;17.45;;;6.50;99.90;;;;;;1947363;72;21078;-76
2021/12/15 01:59:01;;;;;;;29.23;18.80;;;6.50;99.90;;;;;;1934026;72;21541;-75
2021/12/15 02:01:27;;;;;;;27.95;17.90;;;6.60;99.90;;;;;;1935556;73;21455;-76
2021/12/15 02:03:54;;;;;;;28.62;18.92;;;6.60;99.90;;;;;;1945339;71;21069;-76
2021/12/15 02:06:20;;;;;;;23.77;16.02;;;6.50;99.90;;;;;;1932069;72;21448;-76
2021/12/15 02:08:47;;;;;;;22.35;15.15;;;6.60;99.90;;;;;;1935104;72;21495;-76
2021/12/15 02:11:14;;;;;;;24.77;16.93;;;6.60;99.90;;;;;;1945035;72;21463;-75
2021/12/15 02:13:40;;;;;;;22.82;16.15;;;6.70;99.90;;;;;;1952562;73;21094;-76
2021/12/15 02:16:06;;;;;;;26.20;15.80;;;6.60;99.90;;;;;;1941538;73;21040;-76
2021/12/15 02:18:32;;;;;;;26.93;17.12;;;6.60;99.90;;;;;;1935890;72;21145;-75
2021/12/15 02:20:59;;;;;;;30.82;18.37;;;6.50;99.90;;;;;;1924123;72;21063;-76
2021/12/15 02:23:31;;;;;;;26.95;18.17;;;6.60;99.90;;;;;;1911101;73;21287;-76
2021/12/15 02:25:52;;;;;;;24.07;16.90;;;6.50;99.90;;;;;;1940725;72;21235;-76
2021/12/15 02:28:19;;;;;;;25.82;18.50;;;6.50;99.90;;;;;;1939723;72;21083;-76
2021/12/15 02:30:54;;;;;;;28.73;18.55;;;6.40;99.90;;;;;;1939347;73;21134;-76
2021/12/15 02:38:35;;;;;;;28.15;18.02;;;6.60;99.90;;;;;;1939284;72;21076;-77
2021/12/15 02:41:08;;;;;;;31.27;18.92;;;6.50;99.90;;;;;;1939234;72;21213;-76
2021/12/15 02:43:28;;;;;;;31.05;18.52;;;6.40;99.90;;;;;;1949576;72;21099;-76
2021/12/15 02:45:55;;;;;;;31.23;18.23;;;6.40;99.90;;;;;;1930592;73;21157;-76
2021/12/15 02:48:21;;;;;;;29.27;19.00;;;6.40;99.90;;;;;;1949366;73;21059;-76
2021/12/15 02:50:47;;;;;;;22.65;17.50;;;6.50;99.90;;;;;;1943435;73;21204;-77
2021/12/15 02:53:14;;;;;;;28.55;17.80;;;6.60;99.90;;;;;;1943044;72;21161;-76
2021/12/15 02:55:40;;;;;;;25.52;16.87;;;6.60;99.90;;;;;;1940456;73;21128;-75
2021/12/15 02:58:06;;;;;;;28.87;16.80;;;6.60;99.90;;;;;;1929218;73;21148;-76
2021/12/15 03:00:47;;;;;;;29.15;18.67;;;6.60;99.90;;;;;;1931611;73;21145;-76
2021/12/15 03:05:48;;;;;;;22.95;15.15;;;6.40;99.90;;;;;;1937407;73;21190;-76
2021/12/15 03:08:18;;;;;;;27.40;16.23;;;6.50;99.90;;;;;;1948952;73;21181;-77
2021/12/15 03:16:10;;;;;;;27.02;17.92;;;6.40;99.90;;;;;;1947901;72;21467;-75
2021/12/15 03:18:36;;;;;;;28.15;19.32;;;6.50;99.90;;;;;;1939088;73;21552;-75
2021/12/15 03:21:02;;;;;;;34.23;18.10;;;6.40;99.90;;;;;;1932873;72;21490;-76
2021/12/15 03:23:30;;;;;;;23.65;16.45;;;6.40;99.90;;;;;;1909813;72;21045;-76
2021/12/15 03:25:57;;;;;;;26.90;17.67;;;6.40;99.90;;;;;;1934698;73;21520;-76
2021/12/15 03:34:39;;;;;;;24.43;16.20;;;6.60;99.90;;;;;;1932937;72;21088;-77
2021/12/15 03:38:53;;;;;;;27.90;17.55;;;6.40;99.90;;;;;;1913598;73;21044;-76
2021/12/15 03:41:22;;;;;;;31.02;18.55;;;6.30;99.90;;;;;;1931891;72;21153;-77
2021/12/15 03:43:47;;;;;;;26.68;16.48;;;6.40;99.90;;;;;;1946429;72;21576;-76
2021/12/15 03:46:13;;;;;;;26.90;17.32;;;6.50;99.90;;;;;;1936662;73;21527;-76
2021/12/15 03:48:39;;;;;;;26.40;16.70;;;6.50;99.90;;;;;;1936540;72;21048;-77
2021/12/15 03:51:05;;;;;;;28.32;17.67;;;6.40;99.90;;;;;;1944255;72;21075;-76
2021/12/15 03:53:32;;;;;;;25.82;16.90;;;6.40;99.90;;;;;;1941965;73;21146;-77
2021/12/15 03:55:58;;;;;;;24.57;17.27;;;6.40;99.90;;;;;;1937209;72;21053;-76
2021/12/15 03:58:25;;;;;;;27.10;17.85;;;6.30;99.90;;;;;;1944937;72;21080;-78
2021/12/15 04:00:51;;;;;;;27.77;16.87;;;6.20;99.90;;;;;;1922782;73;21078;-78
2021/12/15 04:03:17;;;;;;;20.55;15.40;;;6.40;99.90;;;;;;1937588;72;21158;-78
2021/12/15 04:05:46;;;;;;;22.82;16.00;;;6.40;99.90;;;;;;1941880;73;21062;-79
2021/12/15 04:08:11;;;;;;;21.57;15.85;;;6.40;99.90;;;;;;1943017;72;21525;-78
2021/12/15 04:10:37;;;;;;;23.18;16.82;;;6.40;99.90;;;;;;1939027;73;21482;-77
2021/12/15 04:13:05;;;;;;;23.83;15.48;;;6.50;99.90;;;;;;1952157;72;21507;-78
2021/12/15 04:15:42;;;;;;;22.50;15.38;;;6.50;99.90;;;;;;1935964;72;21499;-79
2021/12/15 04:17:59;;;;;;;22.80;16.00;;;6.40;99.90;;;;;;1933512;73;21100;-78
2021/12/15 04:20:25;;;;;;;24.20;16.20;;;6.50;99.90;;;;;;1942347;73;21130;-78
2021/12/15 04:22:51;;;;;;;23.55;15.75;;;6.50;99.90;;;;;;1916788;73;21059;-78
2021/12/15 04:25:17;;;;;;;23.45;16.48;;;6.50;99.90;;;;;;1942835;72;21125;-78
2021/12/15 04:27:43;;;;;;;24.12;15.23;;;6.60;99.90;;;;;;1939986;72;21221;-79
2021/12/15 04:30:09;;;;;;;29.72;16.12;;;6.50;99.90;;;;;;1936208;73;21161;-78
2021/12/15 04:32:35;;;;;;;26.45;15.60;;;6.60;99.90;;;;;;1932964;72;21205;-78
2021/12/15 04:35:02;;;;;;;28.12;15.53;;;6.60;99.90;;;;;;1935376;73;21456;-78
2021/12/15 04:37:28;;;;;;;25.72;16.07;;;6.60;99.90;;;;;;1946902;72;21528;-78
2021/12/15 04:39:54;;;;;;;24.47;15.95;;;6.50;99.90;;;;;;1944739;72;21427;-78
2021/12/15 04:42:22;;;;;;;28.07;15.43;;;6.50;99.90;;;;;;1947997;72;21528;-76
2021/12/15 04:44:49;;;;;;;31.12;17.30;;;6.50;99.90;;;;;;1947354;71;21173;-78
2021/12/15 04:47:15;;;;;;;24.55;16.07;;;6.60;99.90;;;;;;1945772;72;21156;-78
2021/12/15 04:49:41;;;;;;;23.55;15.60;;;6.50;99.90;;;;;;1934768;72;21276;-78
2021/12/15 04:52:07;;;;;;;23.70;16.57;;;6.40;99.90;;;;;;1943121;72;21049;-78
2021/12/15 04:54:33;;;;;;;24.92;16.42;;;6.40;99.90;;;;;;1936717;73;21141;-78
2021/12/15 04:57:01;;;;;;;25.10;16.32;;;6.40;99.90;;;;;;1946421;73;21148;-78
2021/12/15 04:59:27;;;;;;;27.98;15.53;;;6.60;99.90;;;;;;1944385;72;21561;-78
2021/12/15 05:01:53;;;;;;;21.40;14.68;;;6.50;99.90;;;;;;1944300;73;21192;-78
2021/12/15 05:04:20;;;;;;;21.35;14.90;;;6.50;99.90;;;;;;1938299;72;21080;-79
2021/12/15 05:06:46;;;;;;;23.42;15.50;;;6.50;99.90;;;;;;1935630;72;21091;-78
2021/12/15 05:09:12;;;;;;;25.97;14.83;;;6.50;99.90;;;;;;1935467;73;21153;-78
2021/12/15 05:11:38;;;;;;;26.87;15.75;;;6.60;99.90;;;;;;1941740;73;21074;-78
2021/12/15 05:14:04;;;;;;;19.77;14.78;;;6.60;99.90;;;;;;1918002;72;21058;-78
2021/12/15 05:16:30;;;;;;;21.77;15.23;;;6.60;99.90;;;;;;1948574;72;21080;-78
2021/12/15 05:18:56;;;;;;;24.95;15.30;;;6.50;99.90;;;;;;1938421;73;21076;-78
2021/12/15 05:21:23;;;;;;;21.90;14.78;;;6.50;99.90;;;;;;1933069;73;21070;-75
2021/12/15 05:23:55;;;;;;;19.42;14.30;;;6.60;99.90;;;;;;1934018;73;21070;-74
2021/12/15 05:26:17;;;;;;;22.85;14.53;;;6.60;99.90;;;;;;1933190;71;21479;-75
2021/12/15 05:28:43;;;;;;;26.60;15.30;;;6.60;99.90;;;;;;1930977;72;21594;-75
2021/12/15 05:31:10;;;;;;;20.95;14.38;;;6.60;99.90;;;;;;1934008;72;21053;-75
2021/12/15 05:33:36;;;;;;;21.65;14.60;;;6.60;99.90;;;;;;1940317;72;21107;-74
2021/12/15 05:36:02;;;;;;;26.20;16.65;;;6.50;99.90;;;;;;1952984;73;21084;-73
2021/12/15 05:38:28;;;;;;;25.97;15.20;;;6.60;99.90;;;;;;1930097;73;21072;-74
2021/12/15 05:40:56;;;;;;;23.62;15.20;;;6.60;99.90;;;;;;1924579;73;21196;-74
2021/12/15 05:43:22;;;;;;;23.35;15.75;;;6.60;99.90;;;;;;1929109;73;21129;-74
2021/12/15 05:45:50;;;;;;;25.77;15.70;;;6.50;99.90;;;;;;1948206;72;21137;-75
2021/12/15 05:48:16;;;;;;;20.48;14.87;;;6.60;99.90;;;;;;1951746;72;21137;-74
2021/12/15 05:50:43;;;;;;;23.70;14.75;;;6.60;99.90;;;;;;1941571;73;21162;-74
2021/12/15 05:53:09;;;;;;;22.00;15.32;;;6.50;99.90;;;;;;1937054;72;21092;-76
2021/12/15 05:55:35;;;;;;;23.20;15.30;;;6.40;99.90;;;;;;1945032;72;21115;-75
2021/12/15 05:58:01;;;;;;;22.80;15.35;;;6.40;99.90;;;;;;1933510;72;21486;-75
2021/12/15 06:00:27;;;;;;;24.05;15.35;;;6.40;99.90;;;;;;1931615;72;21592;-74
2021/12/15 06:02:53;;;;;;;26.30;16.27;;;6.50;99.90;;;;;;1936740;72;21084;-74
2021/12/15 06:05:19;;;;;;;21.25;14.55;;;6.60;99.90;;;;;;1913594;72;21061;-74
2021/12/15 06:07:45;;;;;;;19.12;13.32;;;6.50;99.90;;;;;;1945632;71;21128;-75
2021/12/15 06:10:12;;;;;;;18.85;14.40;;;6.50;99.90;;;;;;1931038;73;21172;-75
2021/12/15 06:12:38;;;;;;;18.98;13.15;;;6.60;99.90;;;;;;1940278;73;21087;-74
2021/12/15 06:15:04;;;;;;;18.07;12.93;;;6.50;99.90;;;;;;1917809;73;21044;-75
2021/12/15 06:17:30;;;;;;;19.48;12.40;;;6.50;99.90;;;;;;1928623;73;21077;-76
2021/12/15 06:19:56;;;;;;;21.52;12.33;;;6.60;99.90;;;;;;1926200;72;21072;-76
2021/12/15 06:22:26;;;;;;;19.75;13.45;;;6.60;99.90;;;;;;1941119;72;21145;-76
2021/12/15 06:24:50;;;;;;;22.50;13.55;;;6.60;99.90;;;;;;1944382;72;21212;-75
2021/12/15 06:27:19;;;;;;;17.10;12.88;;;6.50;99.90;;;;;;1932719;73;21072;-74
2021/12/15 06:29:44;;;;;;;20.23;12.18;;;6.50;99.90;;;;;;1941884;72;21489;-76
2021/12/15 06:32:10;;;;;;;18.75;12.10;;;6.40;99.90;;;;;;1927090;72;21075;-74
2021/12/15 06:34:36;;;;;;;16.60;11.25;;;6.30;99.90;;;;;;1944664;73;21072;-75
2021/12/15 06:37:02;;;;;;;17.60;11.63;;;6.40;99.90;;;;;;1962716;73;21202;-74
2021/12/15 06:39:30;;;;;;;16.55;11.80;;;6.40;99.90;;;;;;1949568;72;21093;-74
2021/12/15 06:41:56;;;;;;;20.20;12.37;;;6.40;99.90;;;;;;1945794;73;21092;-74
2021/12/15 06:44:22;;;;;;;19.82;11.60;;;6.40;99.90;;;;;;1933916;72;21092;-74
2021/12/15 07:00:13;;;;;;;13.78;10.08;;;6.40;99.90;;;;;;1922971;73;21175;-75
2021/12/15 07:02:39;;;;;;;13.98;10.78;;;6.40;99.90;;;;;;1945343;72;21153;-75
2021/12/15 07:05:07;;;;;;;13.18;10.70;;;6.40;99.90;;;;;;1944288;72;21076;-75
2021/12/15 07:07:33;;;;;;;19.00;9.98;;;6.50;99.90;;;;;;1952983;72;21101;-74
2021/12/15 07:09:59;;;;;;;17.70;10.88;;;6.50;99.90;;;;;;1933323;72;21068;-75
2021/12/15 07:12:25;;;;;;;13.22;9.15;;;6.50;99.90;;;;;;1946825;73;21180;-75
2021/12/15 07:14:51;;;;;;;13.78;9.35;;;6.40;99.90;;;;;;1918154;72;21087;-75
2021/12/15 07:17:22;;;;;;;17.15;10.75;;;6.50;99.90;;;;;;1937089;72;21122;-75
2021/12/15 07:22:34;;;;;;;14.60;9.93;;;6.40;99.90;;;;;;1926824;73;21575;-74
2021/12/15 07:24:59;;;;;;;17.50;10.85;;;6.40;99.90;;;;;;1941041;73;21097;-75
2021/12/15 07:27:25;;;;;;;14.50;9.35;;;6.30;99.90;;;;;;1948681;72;21147;-75
2021/12/15 07:29:51;;;;;;;12.85;9.85;;;6.40;99.90;;;;;;1947718;72;21191;-75
2021/12/15 07:32:17;;;;;;;11.45;9.15;;;6.40;99.90;;;;;;1943802;72;21092;-75
2021/12/15 07:34:43;;;;;;;12.03;9.50;;;6.40;99.90;;;;;;1947220;72;21452;-75
2021/12/15 07:37:10;;;;;;;10.98;9.10;;;6.40;99.90;;;;;;1943303;73;21494;-75
2021/12/15 07:39:37;;;;;;;12.88;10.30;;;6.40;99.90;;;;;;1942829;72;21193;-75
2021/12/15 07:42:10;;;;;;;14.40;8.90;;;6.40;99.90;;;;;;1939390;72;21641;-74
2021/12/15 07:44:34;;;;;;;13.95;9.23;;;6.30;99.90;;;;;;1941914;72;21085;-74
2021/12/15 07:47:00;;;;;;;14.40;9.23;;;6.40;99.90;;;;;;1932908;73;21149;-75
2021/12/15 07:49:26;;;;;;;14.13;8.60;;;6.40;99.90;;;;;;1955574;72;21063;-74
2021/12/15 07:52:04;;;;;;;12.55;8.73;;;6.40;99.90;;;;;;1925205;72;21151;-74
2021/12/15 07:54:29;;;;;;;13.35;9.65;;;6.40;99.90;;;;;;1936996;71;21182;-74
2021/12/15 07:59:39;;;;;;;10.20;7.35;;;6.50;99.90;;;;;;1924019;72;21072;-75
2021/12/15 08:02:05;;;;;;;12.23;8.03;;;6.50;99.90;;;;;;1938897;72;21079;-75
2021/12/15 08:04:31;;;;;;;8.98;7.55;;;6.40;99.90;;;;;;1931765;73;21153;-74
2021/12/15 08:06:57;;;;;;;10.98;7.42;;;6.40;99.90;;;;;;1931658;73;21435;-74
2021/12/15 08:09:23;;;;;;;9.63;7.03;;;6.40;99.90;;;;;;1943346;73;21460;-74
2021/12/15 08:11:50;;;;;;;11.85;7.53;;;6.40;99.90;;;;;;1936705;73;21555;-74
2021/12/15 08:14:16;;;;;;;9.53;6.65;;;6.40;99.90;;;;;;1934871;73;21637;-75
2021/12/15 08:16:42;;;;;;;9.10;6.83;;;6.40;99.90;;;;;;1945406;72;21467;-75
2021/12/15 08:19:08;;;;;;;7.42;6.00;;;6.50;99.90;;;;;;1943673;72;21181;-75
2021/12/15 08:21:34;;;;;;;11.55;6.55;;;6.50;99.90;;;;;;1939362;72;21185;-75
2021/12/15 08:24:01;;;;;;;7.53;5.70;;;6.40;99.90;;;;;;1932165;72;21145;-76
2021/12/15 08:26:27;;;;;;;6.85;5.37;;;6.40;99.90;;;;;;1941241;72;21134;-75
2021/12/15 08:28:53;;;;;;;9.03;5.65;;;6.50;99.90;;;;;;1942333;72;21073;-73
2021/12/15 08:31:19;;;;;;;6.87;5.65;;;6.60;99.90;;;;;;1935417;72;21256;-72
2021/12/15 08:33:47;;;;;;;8.80;5.58;;;6.70;99.90;;;;;;1946810;72;21099;-74
2021/12/15 08:36:13;;;;;;;6.20;5.05;;;6.60;99.90;;;;;;1929484;72;21210;-74
2021/12/15 08:38:39;;;;;;;8.43;5.50;;;6.60;99.90;;;;;;1934125;72;21262;-73
2021/12/15 08:41:05;;;;;;;6.97;5.30;;;6.60;99.90;;;;;;1919772;73;21084;-73
2021/12/15 08:43:31;;;;;;;8.10;5.45;;;6.60;99.90;;;;;;1950395;73;21128;-74
2021/12/15 08:45:57;;;;;;;6.08;4.80;;;6.60;99.90;;;;;;1942501;73;21128;-75
2021/12/15 08:48:23;;;;;;;5.67;4.70;;;6.60;99.90;;;;;;1946022;72;21149;-74
2021/12/15 08:50:50;;;;;;;8.63;5.33;;;6.70;99.90;;;;;;1947047;72;21471;-75
2021/12/15 08:53:16;;;;;;;7.95;5.12;;;6.70;99.90;;;;;;1937502;72;21063;-74
2021/12/15 08:55:42;;;;;;;7.03;5.50;;;6.60;99.90;;;;;;1937880;72;21084;-74
2021/12/15 08:58:11;;;;;;;5.87;5.03;;;6.60;99.90;;;;;;1940272;72;21247;-73
2021/12/15 09:00:36;;;;;;;7.55;5.65;;;6.60;99.90;;;;;;1929064;72;21239;-74
2021/12/15 09:03:02;;;;;;;6.00;5.40;;;6.60;99.90;;;;;;1933954;72;21226;-75
2021/12/15 09:05:28;;;;;;;7.35;5.25;;;6.60;99.90;;;;;;1943279;72;21027;-75
2021/12/15 09:07:54;;;;;;;8.13;5.17;;;6.60;99.90;;;;;;1936002;72;21049;-75
2021/12/15 09:10:20;;;;;;;12.63;5.97;;;6.50;99.90;;;;;;1949932;72;21150;-75
2021/12/15 09:12:47;;;;;;;8.90;5.72;;;6.60;99.90;;;;;;1925743;72;21162;-75
2021/12/15 09:15:13;;;;;;;11.88;5.78;;;6.50;99.90;;;;;;1943225;72;21072;-75
2021/12/15 09:17:39;;;;;;;8.75;5.35;;;6.50;99.90;;;;;;1936062;72;21145;-74
2021/12/15 09:20:05;;;;;;;9.13;5.28;;;6.50;99.90;;;;;;1946508;72;21075;-73
2021/12/15 09:22:32;;;;;;;9.68;5.80;;;6.60;99.90;;;;;;1943958;73;21150;-73
2021/12/15 09:24:58;;;;;;;8.30;5.37;;;6.60;99.90;;;;;;1926488;72;21090;-72
2021/12/15 09:27:25;;;;;;;7.95;5.30;;;6.60;99.90;;;;;;1939205;73;21080;-73
2021/12/15 09:29:51;;;;;;;6.12;5.47;;;6.60;99.90;;;;;;1949115;72;21129;-72
2021/12/15 09:32:17;;;;;;;10.35;6.05;;;6.60;99.90;;;;;;1938836;72;21043;-73
2021/12/15 09:34:43;;;;;;;10.03;6.58;;;6.70;99.90;;;;;;1933252;72;21083;-73
2021/12/15 09:37:09;;;;;;;7.78;5.85;;;6.70;99.90;;;;;;1945183;73;21561;-73
2021/12/15 09:39:36;;;;;;;8.18;5.60;;;6.60;99.90;;;;;;1942823;73;21557;-73
2021/12/15 09:42:03;;;;;;;9.28;5.90;;;6.60;99.90;;;;;;1942096;72;21119;-72
2021/12/15 09:44:29;;;;;;;9.00;5.97;;;6.60;99.90;;;;;;1941641;72;21133;-74
2021/12/15 10:03:25;;;;;;;5.62;4.80;;;6.60;99.90;;;;;;1944456;72;21491;-73
2021/12/15 10:06:01;;;;;;;6.50;4.80;;;6.60;99.90;;;;;;1950862;72;21125;-73
2021/12/15 10:19:17;;;;;;;7.10;4.97;;;6.70;99.90;;;;;;1938899;72;21269;-74
2021/12/15 10:21:35;;;;;;;6.58;5.08;;;6.70;99.90;;;;;;1933176;72;21137;-75
2021/12/15 10:24:04;;;;;;;7.12;5.25;;;6.70;99.90;;;;;;1922779;72;21080;-76
2021/12/15 10:26:29;;;;;;;5.75;4.83;;;6.70;99.90;;;;;;1937987;73;21246;-76
2021/12/15 10:28:55;;;;;;;7.22;4.95;;;6.60;99.90;;;;;;1939020;73;21121;-75
2021/12/15 10:31:22;;;;;;;4.70;4.30;;;6.70;99.90;;;;;;1956733;72;21041;-76
2021/12/15 10:33:48;;;;;;;4.72;4.25;;;6.70;99.90;;;;;;1937799;72;21051;-76
2021/12/15 10:36:14;;;;;;;5.47;4.20;;;6.70;99.90;;;;;;1938461;72;21083;-76
2021/12/15 10:38:43;;;;;;;6.42;4.40;;;6.70;99.90;;;;;;1941524;73;21219;-76
2021/12/15 10:41:08;;;;;;;4.80;4.33;;;6.70;99.90;;;;;;1933745;73;21186;-75
2021/12/15 10:43:34;;;;;;;4.83;4.37;;;6.70;99.90;;;;;;1950546;73;21068;-76
2021/12/15 10:46:00;;;;;;;5.58;4.33;;;6.60;99.90;;;;;;1947653;72;21049;-73
2021/12/15 10:48:36;;;;;;;4.67;4.28;;;6.60;99.90;;;;;;1910029;73;21058;-73
2021/12/15 10:51:03;;;;;;;6.20;4.70;;;6.60;99.90;;;;;;1948561;71;21076;-74
2021/12/15 10:53:29;;;;;;;6.92;4.95;;;6.70;99.90;;;;;;1935372;72;21194;-74
2021/12/15 10:55:55;;;;;;;4.83;4.30;;;6.70;99.90;;;;;;1942672;73;22537;-74
2021/12/15 10:58:21;;;;;;;6.05;4.80;;;6.70;99.90;;;;;;1949525;72;21272;-75
2021/12/15 11:00:47;;;;;;;5.42;4.90;;;6.80;99.90;;;;;;1936090;73;21058;-75
2021/12/15 11:03:16;;;;;;;5.33;4.83;;;6.70;99.90;;;;;;1930079;73;21050;-74
2021/12/15 11:05:41;;;;;;;5.22;4.70;;;6.60;99.90;;;;;;1934896;72;21109;-75
2021/12/15 11:08:07;;;;;;;5.15;4.55;;;6.50;99.90;;;;;;1944506;73;21234;-74
2021/12/15 11:10:34;;;;;;;7.37;5.30;;;6.70;99.90;;;;;;1935709;73;21130;-75
2021/12/15 11:13:00;;;;;;;5.90;4.83;;;6.60;99.90;;;;;;1932358;73;21099;-75
2021/12/15 11:15:27;;;;;;;6.25;5.00;;;6.60;99.90;;;;;;1920375;73;21506;-76
2021/12/15 11:17:53;;;;;;;6.60;4.87;;;6.70;99.90;;;;;;1928101;73;21076;-75
2021/12/15 11:20:20;;;;;;;9.93;5.05;;;6.70;99.90;;;;;;1941058;72;21065;-75
2021/12/15 11:22:47;;;;;;;5.40;4.65;;;6.70;99.90;;;;;;1951773;72;21092;-75
2021/12/15 11:25:13;;;;;;;6.42;5.20;;;6.70;99.90;;;;;;1940664;73;21145;-76
2021/12/15 11:27:39;;;;;;;4.53;3.90;;;6.80;99.90;;;;;;1938515;73;21145;-75
2021/12/15 11:30:05;;;;;;;4.30;3.90;;;6.70;99.90;;;;;;1936070;72;21153;-75
2021/12/15 11:32:31;;;;;;;4.47;3.65;;;6.70;99.90;;;;;;1950952;72;21085;-76
2021/12/15 11:34:57;;;;;;;3.62;3.33;;;6.70;99.90;;;;;;1944989;73;21066;-75
2021/12/15 11:37:23;;;;;;;4.00;3.55;;;6.80;99.90;;;;;;1946984;72;21057;-75
2021/12/15 11:39:50;;;;;;;4.05;3.42;;;6.60;99.90;;;;;;1933127;73;21055;-75
2021/12/15 11:42:16;;;;;;;3.37;3.08;;;6.60;99.90;;;;;;1938514;73;21625;-75
2021/12/15 11:44:42;;;;;;;2.98;2.75;;;6.70;99.90;;;;;;1934788;72;21504;-75
2021/12/15 11:47:09;;;;;;;4.90;3.67;;;6.70;99.90;;;;;;1937465;72;21062;-75
2021/12/15 11:49:35;;;;;;;3.22;2.98;;;6.80;99.90;;;;;;1938139;72;21076;-75
2021/12/15 11:52:01;;;;;;;4.55;3.47;;;6.80;99.90;;;;;;1952661;73;21479;-75
2021/12/15 11:54:27;;;;;;;18.95;10.55;;;6.80;99.90;;;;;;1937311;72;21066;-76
2021/12/15 11:56:53;;;;;;;4.42;3.15;;;6.80;99.90;;;;;;1939846;73;21084;-75
2021/12/15 11:59:19;;;;;;;4.10;3.20;;;6.70;99.90;;;;;;1931190;73;21140;-74
2021/12/15 12:01:46;;;;;;;4.80;3.02;;;6.80;99.90;;;;;;1948587;72;21140;-75
2021/12/15 12:04:12;;;;;;;3.20;2.90;;;6.80;99.90;;;;;;1939672;72;21190;-75
2021/12/15 12:06:38;;;;;;;3.35;3.08;;;6.80;99.90;;;;;;1938625;73;21187;-74
2021/12/15 12:09:04;;;;;;;3.25;2.95;;;6.80;99.90;;;;;;1935678;72;21150;-75
2021/12/15 12:11:33;;;;;;;3.22;2.92;;;6.80;99.90;;;;;;1944294;72;21078;-74
2021/12/15 12:13:59;;;;;;;4.67;3.40;;;6.80;99.90;;;;;;1927896;72;21214;-75
2021/12/15 12:16:26;;;;;;;4.17;3.30;;;6.80;99.90;;;;;;1949546;72;21561;-74
2021/12/15 12:18:52;;;;;;;2.70;2.50;;;6.80;99.90;;;;;;1949399;72;21585;-76
2021/12/15 12:21:18;;;;;;;4.90;2.50;;;6.70;99.90;;;;;;1935402;72;21072;-77
2021/12/15 12:23:46;;;;;;;2.77;2.20;;;6.70;99.90;;;;;;1941459;72;21072;-77
2021/12/15 12:26:12;;;;;;;3.72;2.70;;;6.90;99.90;;;;;;1943472;73;21077;-75
2021/12/15 12:28:39;;;;;;;3.10;2.85;;;6.90;99.90;;;;;;1939435;72;21069;-74
2021/12/15 12:31:06;;;;;;;3.00;2.50;;;6.70;99.90;;;;;;1935695;71;21165;-75
2021/12/15 12:33:32;;;;;;;4.70;2.87;;;6.70;99.90;;;;;;1937543;73;21412;-79
2021/12/15 12:35:58;;;;;;;5.25;3.05;;;6.80;99.90;;;;;;1923902;73;21142;-75
2021/12/15 12:38:24;;;;;;;2.80;2.60;;;6.70;99.90;;;;;;1937516;72;21066;-74
2021/12/15 12:40:50;;;;;;;2.87;2.67;;;6.70;99.90;;;;;;1940787;72;21080;-75
2021/12/15 12:43:16;;;;;;;3.15;2.85;;;6.70;99.90;;;;;;1934307;73;21165;-81
2021/12/15 12:45:43;;;;;;;3.98;2.70;;;6.60;99.90;;;;;;1923798;73;21053;-73
2021/12/15 12:48:26;;;;;;;3.47;2.50;;;6.80;99.90;;;;;;1930655;73;21125;-74
2021/12/15 12:51:03;;;;;;;2.70;2.50;;;6.70;99.90;;;;;;1929200;73;21176;-75
2021/12/15 13:01:09;;;;;;;2.77;2.58;;;6.80;99.90;;;;;;1787102;78;21338;-77
2021/12/15 13:03:36;;;;;;;2.95;2.58;;;6.80;99.90;;;;;;1842858;72;21145;-76
2021/12/15 13:06:02;;;;;;;3.45;2.65;;;6.90;99.90;;;;;;1941084;72;21096;-76
2021/12/15 13:08:28;;;;;;;2.75;2.50;;;6.90;99.90;;;;;;1907650;73;21575;-77
2021/12/15 13:10:55;;;;;;;2.75;2.52;;;6.90;99.90;;;;;;1940154;72;21691;-76
2021/12/15 13:13:21;;;;;;;2.60;2.40;;;7.00;99.90;;;;;;1950766;72;21554;-77
2021/12/15 13:15:47;;;;;;;4.10;2.80;;;7.00;99.90;;;;;;1931798;73;21486;-76
2021/12/15 13:18:13;;;;;;;3.25;2.17;;;7.00;99.90;;;;;;1941132;72;21064;-76
2021/12/15 13:20:39;;;;;;;3.83;3.00;;;7.00;99.90;;;;;;1922546;72;21135;-78
2021/12/15 13:23:29;;;;;;;3.20;2.90;;;7.00;99.90;;;;;;1950868;72;21153;-77
2021/12/15 13:31:04;;;;;;;3.12;2.83;;;6.80;99.90;;;;;;1912381;72;21575;-74
2021/12/15 13:33:31;;;;;;;3.58;3.10;;;6.80;99.90;;;;;;1934803;72;21614;-76
2021/12/15 13:35:57;;;;;;;3.58;2.42;;;6.80;99.90;;;;;;1932943;73;21072;-76
2021/12/15 13:38:23;;;;;;;3.42;3.08;;;6.70;99.90;;;;;;1935118;73;21072;-77
2021/12/15 13:40:50;;;;;;;4.28;2.85;;;6.80;99.90;;;;;;1946343;72;21155;-75
2021/12/15 13:43:16;;;;;;;3.27;2.77;;;6.80;99.90;;;;;;1928484;72;21053;-77
2021/12/15 13:45:42;;;;;;;3.10;2.90;;;6.70;99.90;;;;;;1940535;71;21088;-78
2021/12/15 13:48:08;;;;;;;5.85;3.10;;;6.90;99.90;;;;;;1948183;72;21058;-78
2021/12/15 13:50:34;;;;;;;11.08;2.67;;;6.90;99.90;;;;;;1937731;71;21152;-80
2021/12/15 13:53:03;;;;;;;4.78;2.90;;;6.80;99.90;;;;;;1942264;72;21144;-82
2021/12/15 13:55:28;;;;;;;3.27;2.42;;;6.90;99.90;;;;;;1937234;72;21409;-80
2021/12/15 13:57:54;;;;;;;2.98;2.47;;;6.90;99.90;;;;;;1903084;73;21528;-76
2021/12/15 14:00:20;;;;;;;2.80;2.60;;;6.90;99.90;;;;;;1941293;72;21141;-73
2021/12/15 14:02:47;;;;;;;2.45;2.25;;;6.90;99.90;;;;;;1926975;73;21140;-72
2021/12/15 14:05:13;;;;;;;2.67;2.47;;;6.80;99.90;;;;;;1954429;72;21071;-73
2021/12/15 14:07:41;;;;;;;7.65;2.77;;;6.80;99.90;;;;;;1939664;72;21167;-72
2021/12/15 14:10:07;;;;;;;4.33;2.90;;;6.80;99.90;;;;;;1924576;73;21551;-72
2021/12/15 14:12:33;;;;;;;3.75;3.10;;;6.70;99.90;;;;;;1937948;73;21499;-71
2021/12/15 14:14:59;;;;;;;3.10;2.80;;;6.70;99.90;;;;;;1941357;72;21137;-72